Time;durP1;ratioP1;P1;durP2;ratioP2;P2;SDS_P1;SDS_P2;PMS_P1;PMS_P2;Temp;Humidity;BMP_temperature;BMP_pressure;BME280_temperature;BME280_humidity;BME280_pressure;Samples;Min_cycle;Max_cycle;Signal;HPM_P1;HPM_P2
2023/03/23 00:02:39;;;;;;;31.92;22.10;;;;;;;;;;5033165;28;20453;-81
2023/03/23 00:05:07;;;;;;;33.72;22.98;;;;;;;;;;5035099;28;20496;-81
2023/03/23 00:07:33;;;;;;;31.10;22.38;;;;;;;;;;5053977;28;20928;-81
2023/03/23 00:10:02;;;;;;;30.27;22.52;;;;;;;;;;5035849;28;20421;-81
2023/03/23 00:12:32;;;;;;;31.95;22.65;;;;;;;;;;5034165;28;20411;-81
2023/03/23 00:15:12;;;;;;;30.90;22.05;;;;;;;;;;5018484;28;20442;-81
2023/03/23 00:17:40;;;;;;;29.90;21.63;;;;;;;;;;5038578;28;20421;-80
2023/03/23 00:20:06;;;;;;;31.40;20.83;;;;;;;;;;5034637;28;20425;-81
2023/03/23 00:22:37;;;;;;;26.92;19.88;;;;;;;;;;5047066;28;20419;-80
2023/03/23 00:25:03;;;;;;;27.63;19.67;;;;;;;;;;5048588;28;20536;-79
2023/03/23 00:27:29;;;;;;;23.35;18.38;;;;;;;;;;5050644;28;20906;-80
2023/03/23 00:29:56;;;;;;;25.65;18.48;;;;;;;;;;5052142;28;20425;-80
2023/03/23 00:32:29;;;;;;;23.70;17.43;;;;;;;;;;5036228;28;21228;-80
2023/03/23 00:34:58;;;;;;;24.65;17.95;;;;;;;;;;5016391;28;20432;-80
2023/03/23 00:37:24;;;;;;;19.80;15.73;;;;;;;;;;5034115;28;20924;-81
2023/03/23 00:39:51;;;;;;;22.95;15.23;;;;;;;;;;5035199;28;20471;-81
2023/03/23 00:42:18;;;;;;;13.20;10.23;;;;;;;;;;5051301;28;20520;-82
2023/03/23 00:44:44;;;;;;;12.23;7.07;;;;;;;;;;5035049;28;20470;-80
2023/03/23 00:47:11;;;;;;;11.02;7.03;;;;;;;;;;5039565;28;20439;-81
2023/03/23 00:49:37;;;;;;;11.35;7.60;;;;;;;;;;5036442;28;20416;-80
2023/03/23 00:52:04;;;;;;;13.77;9.30;;;;;;;;;;5022249;28;20416;-80
2023/03/23 00:54:30;;;;;;;11.15;8.05;;;;;;;;;;5054342;28;20426;-81
2023/03/23 00:56:56;;;;;;;8.55;6.47;;;;;;;;;;5039663;28;20435;-80
2023/03/23 00:59:22;;;;;;;7.35;5.47;;;;;;;;;;5038808;28;20514;-81
2023/03/23 01:01:49;;;;;;;9.18;5.20;;;;;;;;;;5054322;28;20419;-81
2023/03/23 01:04:15;;;;;;;9.50;6.07;;;;;;;;;;5034193;28;20827;-81
2023/03/23 01:06:43;;;;;;;10.10;7.68;;;;;;;;;;5054888;28;20971;-82
2023/03/23 01:09:16;;;;;;;13.02;9.00;;;;;;;;;;5053556;28;20504;-82
2023/03/23 01:11:43;;;;;;;14.07;10.20;;;;;;;;;;5055102;28;20455;-81
2023/03/23 01:14:09;;;;;;;13.02;10.43;;;;;;;;;;5038809;28;20482;-82
2023/03/23 01:16:35;;;;;;;14.93;10.90;;;;;;;;;;5054416;28;20454;-81
2023/03/23 01:19:01;;;;;;;16.92;11.30;;;;;;;;;;5038252;28;20473;-81
2023/03/23 01:21:28;;;;;;;16.70;12.32;;;;;;;;;;5022211;28;20419;-81
2023/03/23 01:23:54;;;;;;;15.82;11.70;;;;;;;;;;5054082;28;20526;-81
2023/03/23 01:26:22;;;;;;;15.10;11.20;;;;;;;;;;5038808;28;20399;-81
2023/03/23 01:28:48;;;;;;;16.10;11.07;;;;;;;;;;5053085;28;20423;-81
2023/03/23 01:31:16;;;;;;;17.50;11.27;;;;;;;;;;5028741;28;20476;-81
2023/03/23 01:33:42;;;;;;;19.42;10.82;;;;;;;;;;5035086;28;20408;-81
2023/03/23 01:36:11;;;;;;;17.75;10.52;;;;;;;;;;5055111;28;20403;-81
2023/03/23 01:38:37;;;;;;;15.60;10.63;;;;;;;;;;5038217;28;20423;-82
2023/03/23 01:41:04;;;;;;;16.27;10.63;;;;;;;;;;5037439;28;20424;-82
2023/03/23 01:43:30;;;;;;;15.82;9.80;;;;;;;;;;5052216;28;20416;-81
2023/03/23 01:45:57;;;;;;;13.63;9.90;;;;;;;;;;5018826;28;20436;-81
2023/03/23 01:48:33;;;;;;;14.27;9.80;;;;;;;;;;5037374;28;20424;-81
2023/03/23 01:51:04;;;;;;;15.73;9.20;;;;;;;;;;5051653;28;20948;-81
2023/03/23 01:53:35;;;;;;;12.52;8.35;;;;;;;;;;5055159;28;20401;-81
2023/03/23 01:56:02;;;;;;;12.60;8.02;;;;;;;;;;5052959;28;20434;-81
2023/03/23 01:58:31;;;;;;;11.15;7.53;;;;;;;;;;5052413;28;20436;-81
2023/03/23 02:01:00;;;;;;;13.43;7.78;;;;;;;;;;5053108;28;20489;-82
2023/03/23 02:03:27;;;;;;;12.00;7.60;;;;;;;;;;5053992;28;20442;-81
2023/03/23 02:05:54;;;;;;;13.00;7.00;;;;;;;;;;5036961;28;20446;-81
2023/03/23 02:08:20;;;;;;;13.55;7.13;;;;;;;;;;5037360;28;20396;-81
2023/03/23 02:10:46;;;;;;;12.07;7.05;;;;;;;;;;5053180;28;20451;-81
2023/03/23 02:13:13;;;;;;;12.68;7.07;;;;;;;;;;5034473;28;20423;-81
2023/03/23 02:15:56;;;;;;;11.48;6.50;;;;;;;;;;5037066;28;20420;-81
2023/03/23 02:18:41;;;;;;;11.47;6.60;;;;;;;;;;5054733;28;20477;-81
2023/03/23 02:21:34;;;;;;;16.17;6.82;;;;;;;;;;5052690;28;20433;-81
2023/03/23 02:24:16;;;;;;;14.00;6.97;;;;;;;;;;5054932;28;20446;-82
2023/03/23 02:27:02;;;;;;;11.83;6.60;;;;;;;;;;5037774;28;20412;-81
2023/03/23 02:29:43;;;;;;;11.02;6.60;;;;;;;;;;5050361;28;20416;-81
2023/03/23 02:32:12;;;;;;;10.60;6.28;;;;;;;;;;5034904;28;20423;-81
2023/03/23 02:34:41;;;;;;;12.55;6.30;;;;;;;;;;5036567;28;20431;-81
2023/03/23 02:37:31;;;;;;;10.38;6.10;;;;;;;;;;5053783;28;20768;-81
2023/03/23 02:40:08;;;;;;;9.95;5.80;;;;;;;;;;5042070;28;20427;-81
2023/03/23 02:42:36;;;;;;;11.70;6.40;;;;;;;;;;5053065;28;20432;-81
2023/03/23 02:45:07;;;;;;;9.32;5.68;;;;;;;;;;5035973;28;20431;-81
2023/03/23 02:47:34;;;;;;;10.63;6.03;;;;;;;;;;5035091;28;20485;-81
2023/03/23 02:50:00;;;;;;;9.52;5.88;;;;;;;;;;5051163;28;20419;-81
2023/03/23 02:52:28;;;;;;;8.98;5.60;;;;;;;;;;5054421;28;20400;-81
2023/03/23 02:54:55;;;;;;;8.32;5.35;;;;;;;;;;5052395;28;20415;-81
2023/03/23 02:57:22;;;;;;;9.75;5.60;;;;;;;;;;5019740;28;20481;-80
2023/03/23 02:59:49;;;;;;;9.60;5.38;;;;;;;;;;5035023;28;20415;-80
2023/03/23 03:02:18;;;;;;;9.30;5.15;;;;;;;;;;5037318;28;20980;-80
2023/03/23 03:04:48;;;;;;;12.07;5.60;;;;;;;;;;5036267;28;20426;-79
2023/03/23 03:07:30;;;;;;;10.43;5.70;;;;;;;;;;5050449;28;20455;-80
2023/03/23 03:10:02;;;;;;;10.90;5.60;;;;;;;;;;5035413;28;20590;-80
2023/03/23 03:12:28;;;;;;;9.27;5.30;;;;;;;;;;5037036;28;20411;-79
2023/03/23 03:15:13;;;;;;;9.95;5.40;;;;;;;;;;5036155;28;20419;-80
2023/03/23 03:17:43;;;;;;;7.85;5.00;;;;;;;;;;5031332;28;20918;-80
2023/03/23 03:20:10;;;;;;;8.60;4.70;;;;;;;;;;5051648;28;20946;-79
2023/03/23 03:22:38;;;;;;;8.57;5.00;;;;;;;;;;5032014;28;20425;-80
2023/03/23 03:25:06;;;;;;;10.45;5.18;;;;;;;;;;5044083;28;20416;-81
2023/03/23 03:27:32;;;;;;;8.63;4.97;;;;;;;;;;5052791;28;20747;-81
2023/03/23 03:30:00;;;;;;;10.27;4.90;;;;;;;;;;5051670;28;20768;-81
2023/03/23 03:32:38;;;;;;;9.10;5.07;;;;;;;;;;5036164;28;20794;-82
2023/03/23 03:35:05;;;;;;;9.47;5.13;;;;;;;;;;5035318;28;20987;-81
2023/03/23 03:37:37;;;;;;;9.73;5.30;;;;;;;;;;5049481;28;20415;-81
2023/03/23 03:40:07;;;;;;;9.93;4.97;;;;;;;;;;5035875;28;20426;-81
2023/03/23 03:42:34;;;;;;;10.10;5.13;;;;;;;;;;5052644;28;20454;-81
2023/03/23 03:45:00;;;;;;;9.65;5.05;;;;;;;;;;5035980;28;20416;-82
2023/03/23 03:47:26;;;;;;;10.63;4.72;;;;;;;;;;5047137;28;20434;-83
2023/03/23 03:49:52;;;;;;;12.65;5.60;;;;;;;;;;5008969;28;20498;-83
2023/03/23 03:52:18;;;;;;;16.13;5.70;;;;;;;;;;5032990;28;20422;-83
2023/03/23 03:54:44;;;;;;;14.32;6.13;;;;;;;;;;5004354;28;21044;-82
2023/03/23 03:57:11;;;;;;;14.25;6.80;;;;;;;;;;5008926;28;20711;-83
2023/03/23 03:59:37;;;;;;;12.63;7.47;;;;;;;;;;5040875;28;20410;-83
2023/03/23 04:02:03;;;;;;;13.30;7.70;;;;;;;;;;5017230;28;20466;-82
2023/03/23 04:04:29;;;;;;;12.90;8.05;;;;;;;;;;5048465;28;20434;-81
2023/03/23 04:06:57;;;;;;;15.55;8.77;;;;;;;;;;5044990;28;20430;-81
2023/03/23 04:09:31;;;;;;;43.85;8.35;;;;;;;;;;5033314;28;20496;-83
2023/03/23 04:11:57;;;;;;;4.18;1.40;;;;;;;;;;5023398;28;20437;-83
2023/03/23 04:14:23;;;;;;;6.38;2.28;;;;;;;;;;5033808;28;20402;-81
2023/03/23 04:16:51;;;;;;;8.10;4.60;;;;;;;;;;5031995;28;20516;-81
2023/03/23 04:19:18;;;;;;;12.18;7.30;;;;;;;;;;5045005;28;20469;-81
2023/03/23 04:21:48;;;;;;;14.85;8.45;;;;;;;;;;5030413;28;20431;-82
2023/03/23 04:24:15;;;;;;;14.88;9.07;;;;;;;;;;5030559;28;20399;-82
2023/03/23 04:26:41;;;;;;;11.13;7.05;;;;;;;;;;5043233;28;20424;-81
2023/03/23 04:29:08;;;;;;;13.70;7.97;;;;;;;;;;5033374;28;20413;-81
2023/03/23 04:31:34;;;;;;;16.15;8.35;;;;;;;;;;5032235;28;20547;-82
2023/03/23 04:34:01;;;;;;;14.73;7.97;;;;;;;;;;5032770;28;20393;-82
2023/03/23 04:36:28;;;;;;;12.60;5.53;;;;;;;;;;5046975;28;20420;-82
2023/03/23 04:38:55;;;;;;;10.57;4.18;;;;;;;;;;5031297;28;20502;-81
2023/03/23 04:41:22;;;;;;;10.02;4.00;;;;;;;;;;5033033;28;20825;-80
2023/03/23 04:43:52;;;;;;;9.20;4.15;;;;;;;;;;5026863;28;20430;-80
2023/03/23 04:46:19;;;;;;;9.88;4.88;;;;;;;;;;5030769;28;20504;-80
2023/03/23 04:48:45;;;;;;;9.95;4.22;;;;;;;;;;5015017;28;20437;-80
2023/03/23 04:51:12;;;;;;;12.00;4.82;;;;;;;;;;5048162;28;20475;-80
2023/03/23 04:53:38;;;;;;;13.63;5.85;;;;;;;;;;5037002;28;20440;-80
2023/03/23 04:56:05;;;;;;;14.35;6.28;;;;;;;;;;5024670;28;20818;-80
2023/03/23 04:58:33;;;;;;;10.07;5.75;;;;;;;;;;5036922;28;20824;-81
2023/03/23 05:01:00;;;;;;;14.80;5.22;;;;;;;;;;5031419;28;20449;-82
2023/03/23 05:03:26;;;;;;;13.80;5.85;;;;;;;;;;5016646;28;20427;-81
2023/03/23 05:05:53;;;;;;;12.13;5.43;;;;;;;;;;5000732;28;20747;-80
2023/03/23 05:08:20;;;;;;;15.65;5.07;;;;;;;;;;5046165;28;20764;-80
2023/03/23 05:10:55;;;;;;;13.98;5.05;;;;;;;;;;5034475;28;20467;-80
2023/03/23 05:13:21;;;;;;;12.52;5.05;;;;;;;;;;5035560;28;20490;-81
2023/03/23 05:15:47;;;;;;;15.37;4.80;;;;;;;;;;5035711;28;20440;-80
2023/03/23 05:18:14;;;;;;;13.65;4.47;;;;;;;;;;5050065;28;20917;-80
2023/03/23 05:20:41;;;;;;;15.68;4.95;;;;;;;;;;5052489;28;20412;-80
2023/03/23 05:23:08;;;;;;;17.85;4.85;;;;;;;;;;5036160;28;20425;-81
2023/03/23 05:25:39;;;;;;;19.05;5.32;;;;;;;;;;5034939;28;20421;-81
2023/03/23 05:28:06;;;;;;;15.20;4.93;;;;;;;;;;5029852;28;20768;-81
2023/03/23 05:30:32;;;;;;;19.65;5.05;;;;;;;;;;5051933;28;20808;-81
2023/03/23 05:32:59;;;;;;;19.05;4.97;;;;;;;;;;5050679;28;20432;-81
2023/03/23 05:35:27;;;;;;;20.30;5.10;;;;;;;;;;5035399;28;20508;-81
2023/03/23 05:37:53;;;;;;;16.20;4.40;;;;;;;;;;5034404;28;20418;-81
2023/03/23 05:40:20;;;;;;;22.00;4.90;;;;;;;;;;5049838;28;20560;-83
2023/03/23 05:42:46;;;;;;;17.42;4.55;;;;;;;;;;5052345;28;20428;-81
2023/03/23 05:45:12;;;;;;;21.83;4.93;;;;;;;;;;5035227;28;20813;-80
2023/03/23 05:47:39;;;;;;;17.45;4.60;;;;;;;;;;5034479;28;20428;-80
2023/03/23 05:50:06;;;;;;;20.30;4.82;;;;;;;;;;5035491;28;20416;-81
2023/03/23 05:52:35;;;;;;;24.30;4.57;;;;;;;;;;5052706;28;20454;-80
2023/03/23 05:55:03;;;;;;;17.95;4.10;;;;;;;;;;5054956;28;20419;-80
2023/03/23 05:57:29;;;;;;;18.33;4.47;;;;;;;;;;5055281;28;20919;-80
2023/03/23 05:59:55;;;;;;;21.55;5.00;;;;;;;;;;5054234;28;20576;-80
2023/03/23 06:02:23;;;;;;;23.88;4.70;;;;;;;;;;5037574;28;20431;-81
2023/03/23 06:04:50;;;;;;;20.40;4.70;;;;;;;;;;5051989;28;20416;-80
2023/03/23 06:07:16;;;;;;;20.60;4.57;;;;;;;;;;5035220;28;20423;-80
2023/03/23 06:09:42;;;;;;;21.05;4.50;;;;;;;;;;5036658;28;20417;-79
2023/03/23 06:12:09;;;;;;;21.77;4.50;;;;;;;;;;5033671;28;20437;-82
2023/03/23 06:14:36;;;;;;;22.10;4.30;;;;;;;;;;5057580;28;20423;-82
2023/03/23 06:17:02;;;;;;;24.00;5.30;;;;;;;;;;5051395;28;20419;-82
2023/03/23 06:19:28;;;;;;;21.95;4.93;;;;;;;;;;5041578;28;20432;-82
2023/03/23 06:21:55;;;;;;;19.40;4.10;;;;;;;;;;5052758;28;20982;-82
2023/03/23 06:24:21;;;;;;;19.80;4.50;;;;;;;;;;5049704;28;20422;-81
2023/03/23 06:26:48;;;;;;;18.77;4.15;;;;;;;;;;5051740;28;20471;-83
2023/03/23 06:29:17;;;;;;;21.45;4.40;;;;;;;;;;5016948;28;20571;-84
2023/03/23 06:31:52;;;;;;;15.35;4.07;;;;;;;;;;5043975;28;20730;-86
2023/03/23 06:34:22;;;;;;;16.85;4.20;;;;;;;;;;5043304;28;20425;-85
2023/03/23 06:36:49;;;;;;;21.77;4.40;;;;;;;;;;5035148;28;20407;-83
2023/03/23 06:39:15;;;;;;;17.25;4.40;;;;;;;;;;5044202;28;20435;-84
2023/03/23 06:41:41;;;;;;;23.65;4.85;;;;;;;;;;5043906;28;20409;-81
2023/03/23 06:44:08;;;;;;;22.08;4.60;;;;;;;;;;5054424;28;20887;-80
2023/03/23 06:46:34;;;;;;;23.50;4.60;;;;;;;;;;5036409;28;20911;-80
2023/03/23 06:49:00;;;;;;;22.08;4.85;;;;;;;;;;5054294;28;20426;-81
2023/03/23 06:51:27;;;;;;;20.85;4.03;;;;;;;;;;5045470;28;20405;-80
2023/03/23 06:53:53;;;;;;;19.05;4.30;;;;;;;;;;5045668;28;20426;-81
2023/03/23 06:56:19;;;;;;;21.85;4.75;;;;;;;;;;5034941;28;20423;-82
2023/03/23 06:58:45;;;;;;;23.80;5.13;;;;;;;;;;5053336;28;20756;-81
2023/03/23 07:01:12;;;;;;;25.27;4.85;;;;;;;;;;5035872;28;20931;-81
2023/03/23 07:03:40;;;;;;;24.25;4.50;;;;;;;;;;5036788;28;20469;-81
2023/03/23 07:06:07;;;;;;;24.17;5.07;;;;;;;;;;5068291;28;20507;-82
2023/03/23 07:08:33;;;;;;;22.00;5.00;;;;;;;;;;5049498;28;20415;-83
2023/03/23 07:11:00;;;;;;;21.63;5.27;;;;;;;;;;5050859;28;20408;-82
2023/03/23 07:13:26;;;;;;;22.95;4.82;;;;;;;;;;5036764;28;20538;-83
2023/03/23 07:15:53;;;;;;;30.08;5.90;;;;;;;;;;5042480;28;20426;-83
2023/03/23 07:18:19;;;;;;;19.20;4.93;;;;;;;;;;5049820;28;20915;-82
2023/03/23 07:20:49;;;;;;;22.88;5.05;;;;;;;;;;5035099;28;20486;-83
2023/03/23 07:23:16;;;;;;;21.05;5.45;;;;;;;;;;5048967;28;20425;-83
2023/03/23 07:25:43;;;;;;;22.40;4.80;;;;;;;;;;5038896;28;20574;-84
2023/03/23 07:28:09;;;;;;;22.43;5.23;;;;;;;;;;5048813;28;20876;-84
2023/03/23 07:30:35;;;;;;;20.75;4.65;;;;;;;;;;5036432;28;20404;-84
2023/03/23 07:33:04;;;;;;;25.08;5.43;;;;;;;;;;5050402;28;20771;-85
2023/03/23 07:35:31;;;;;;;22.15;5.20;;;;;;;;;;5035183;28;20938;-85
2023/03/23 07:37:57;;;;;;;23.92;5.13;;;;;;;;;;5049130;28;20409;-81
2023/03/23 07:40:23;;;;;;;23.17;5.13;;;;;;;;;;5036567;28;20419;-85
2023/03/23 07:42:53;;;;;;;23.75;4.88;;;;;;;;;;5048685;28;20424;-80
2023/03/23 07:45:19;;;;;;;19.80;4.97;;;;;;;;;;5050578;28;20459;-85
2023/03/23 07:47:45;;;;;;;24.23;5.53;;;;;;;;;;5046958;28;20424;-86
2023/03/23 07:50:12;;;;;;;23.27;5.13;;;;;;;;;;5017414;28;20425;-85
2023/03/23 07:52:39;;;;;;;21.67;5.10;;;;;;;;;;5029454;28;20436;-85
2023/03/23 07:55:06;;;;;;;28.60;5.45;;;;;;;;;;5050780;28;20427;-85
2023/03/23 07:57:33;;;;;;;21.77;5.15;;;;;;;;;;5043567;28;20471;-86
2023/03/23 07:59:59;;;;;;;22.10;4.75;;;;;;;;;;5048734;28;20822;-86
2023/03/23 08:02:26;;;;;;;21.70;5.13;;;;;;;;;;5048167;28;20987;-85
2023/03/23 08:04:53;;;;;;;21.40;4.88;;;;;;;;;;5037190;28;20864;-85
2023/03/23 08:07:20;;;;;;;20.60;4.70;;;;;;;;;;5053727;28;20423;-85
2023/03/23 08:09:47;;;;;;;22.85;5.43;;;;;;;;;;5041705;28;20426;-87
2023/03/23 08:12:13;;;;;;;22.07;5.13;;;;;;;;;;5043155;28;20419;-86
2023/03/23 08:14:41;;;;;;;25.73;5.80;;;;;;;;;;5066064;28;20778;-87
2023/03/23 08:17:08;;;;;;;28.02;6.13;;;;;;;;;;5035400;28;20427;-86
2023/03/23 08:19:36;;;;;;;21.05;4.85;;;;;;;;;;5041956;28;20936;-86
2023/03/23 08:22:03;;;;;;;26.92;5.55;;;;;;;;;;5043748;28;20841;-87
2023/03/23 08:24:30;;;;;;;30.10;5.95;;;;;;;;;;5029314;28;20419;-87
2023/03/23 08:26:57;;;;;;;26.38;6.07;;;;;;;;;;5054667;28;20502;-87
2023/03/23 08:29:23;;;;;;;25.55;5.00;;;;;;;;;;5052866;28;20404;-85
2023/03/23 08:31:49;;;;;;;26.73;6.07;;;;;;;;;;5056133;28;20415;-86
2023/03/23 08:34:15;;;;;;;27.30;5.72;;;;;;;;;;5036174;28;20447;-85
2023/03/23 08:36:43;;;;;;;24.73;5.63;;;;;;;;;;5053249;28;20498;-87
2023/03/23 08:39:10;;;;;;;26.10;5.25;;;;;;;;;;5039752;28;20419;-86
2023/03/23 08:41:37;;;;;;;23.53;5.97;;;;;;;;;;5051526;28;20525;-85
2023/03/23 08:44:05;;;;;;;26.25;5.57;;;;;;;;;;5037896;28;20467;-87
2023/03/23 08:46:31;;;;;;;26.33;5.65;;;;;;;;;;5020566;28;20816;-87
2023/03/23 08:48:57;;;;;;;25.95;6.07;;;;;;;;;;5039461;28;20783;-88
2023/03/23 08:51:23;;;;;;;30.05;6.63;;;;;;;;;;5046246;28;20456;-88
2023/03/23 08:53:50;;;;;;;25.45;6.00;;;;;;;;;;5050610;28;20419;-88
2023/03/23 08:56:17;;;;;;;29.50;6.43;;;;;;;;;;5049071;28;20773;-88
2023/03/23 08:58:43;;;;;;;27.70;6.00;;;;;;;;;;5051082;28;20450;-83
2023/03/23 09:01:10;;;;;;;26.00;6.40;;;;;;;;;;5045700;28;20434;-85
2023/03/23 09:03:36;;;;;;;29.25;6.75;;;;;;;;;;5064753;28;20504;-85
2023/03/23 09:06:04;;;;;;;29.65;6.40;;;;;;;;;;5046725;28;20417;-83
2023/03/23 09:08:31;;;;;;;27.60;6.18;;;;;;;;;;5031654;28;20424;-83
2023/03/23 09:11:01;;;;;;;27.85;6.78;;;;;;;;;;5047988;28;20990;-83
2023/03/23 09:13:27;;;;;;;28.33;5.88;;;;;;;;;;5052897;28;20423;-82
2023/03/23 09:15:53;;;;;;;26.35;5.93;;;;;;;;;;5053807;28;20450;-83
2023/03/23 09:18:19;;;;;;;24.88;5.78;;;;;;;;;;5038043;28;20424;-83
2023/03/23 09:20:47;;;;;;;27.50;5.80;;;;;;;;;;5036026;28;20417;-84
2023/03/23 09:23:13;;;;;;;28.73;6.25;;;;;;;;;;5038006;28;20427;-83
2023/03/23 09:25:39;;;;;;;24.23;5.65;;;;;;;;;;5038355;28;20425;-83
2023/03/23 09:28:06;;;;;;;23.25;5.50;;;;;;;;;;5049300;28;20417;-82
2023/03/23 09:30:33;;;;;;;21.90;5.40;;;;;;;;;;5031344;28;20507;-84
2023/03/23 09:33:03;;;;;;;22.65;5.25;;;;;;;;;;5035931;28;20551;-84
2023/03/23 09:35:31;;;;;;;29.45;5.95;;;;;;;;;;5067863;28;20423;-84
2023/03/23 09:38:00;;;;;;;24.45;5.07;;;;;;;;;;5049068;28;20449;-84
2023/03/23 09:40:31;;;;;;;24.48;5.38;;;;;;;;;;5050578;28;20404;-85
2023/03/23 09:43:00;;;;;;;21.98;6.50;;;;;;;;;;5052671;28;20913;-84
2023/03/23 09:45:45;;;;;;;27.10;6.38;;;;;;;;;;5058198;28;20791;-87
2023/03/23 09:48:11;;;;;;;22.35;5.25;;;;;;;;;;5038982;28;20787;-85
2023/03/23 09:50:38;;;;;;;24.57;4.90;;;;;;;;;;5060459;28;20467;-88
2023/03/23 09:53:15;;;;;;;24.80;4.95;;;;;;;;;;5065459;28;20419;-86
2023/03/23 09:55:42;;;;;;;25.33;5.57;;;;;;;;;;5050884;28;20431;-86
2023/03/23 09:58:12;;;;;;;22.45;5.28;;;;;;;;;;5052909;28;20496;-86
2023/03/23 10:00:44;;;;;;;25.15;5.43;;;;;;;;;;5048387;28;20540;-86
2023/03/23 10:03:15;;;;;;;22.67;5.13;;;;;;;;;;5059161;28;20423;-82
2023/03/23 10:05:43;;;;;;;22.00;6.18;;;;;;;;;;5051915;28;20426;-85
2023/03/23 10:08:12;;;;;;;21.05;5.00;;;;;;;;;;5056110;28;20482;-86
2023/03/23 10:10:48;;;;;;;20.13;4.65;;;;;;;;;;5034068;28;20418;-87
2023/03/23 10:13:40;;;;;;;22.42;4.90;;;;;;;;;;5031776;28;20430;-87
2023/03/23 10:16:10;;;;;;;21.55;5.10;;;;;;;;;;5020574;28;20425;-87
2023/03/23 10:18:46;;;;;;;17.83;4.70;;;;;;;;;;5038129;28;20508;-86
2023/03/23 10:21:20;;;;;;;20.70;5.00;;;;;;;;;;5066326;28;20423;-86
2023/03/23 10:24:00;;;;;;;19.55;5.03;;;;;;;;;;5048260;28;20488;-85
2023/03/23 10:26:45;;;;;;;19.27;4.82;;;;;;;;;;5041787;28;20428;-86
2023/03/23 10:29:24;;;;;;;21.77;4.63;;;;;;;;;;5059903;28;20949;-87
2023/03/23 10:31:57;;;;;;;21.02;4.70;;;;;;;;;;5047656;28;20435;-83
2023/03/23 10:34:24;;;;;;;18.02;3.80;;;;;;;;;;5027678;28;20441;-85
2023/03/23 10:36:57;;;;;;;18.15;4.25;;;;;;;;;;5034446;28;20973;-85
2023/03/23 10:39:24;;;;;;;18.35;4.05;;;;;;;;;;5035723;28;20413;-85
2023/03/23 10:41:52;;;;;;;19.20;4.30;;;;;;;;;;5054533;28;20738;-85
2023/03/23 10:44:24;;;;;;;15.95;4.28;;;;;;;;;;5035242;28;20422;-85
2023/03/23 10:47:00;;;;;;;16.75;4.50;;;;;;;;;;5032797;28;20814;-84
2023/03/23 10:49:30;;;;;;;18.95;4.43;;;;;;;;;;5050238;28;20977;-84
2023/03/23 10:52:19;;;;;;;15.02;3.58;;;;;;;;;;5036484;28;20512;-82
2023/03/23 10:55:01;;;;;;;17.65;4.10;;;;;;;;;;5034240;28;20423;-84
2023/03/23 10:57:29;;;;;;;16.33;3.50;;;;;;;;;;5031798;28;20426;-85
2023/03/23 11:00:00;;;;;;;17.63;3.92;;;;;;;;;;5027333;28;20460;-85
2023/03/23 11:02:27;;;;;;;16.20;3.83;;;;;;;;;;5050948;28;20423;-85
2023/03/23 11:05:05;;;;;;;18.90;3.92;;;;;;;;;;5031590;28;20423;-85
2023/03/23 11:07:34;;;;;;;14.20;3.88;;;;;;;;;;5029378;28;20446;-86
2023/03/23 11:10:20;;;;;;;16.50;3.72;;;;;;;;;;5054654;28;20559;-83
2023/03/23 11:12:46;;;;;;;12.07;3.60;;;;;;;;;;5025269;28;20880;-85
2023/03/23 11:15:40;;;;;;;14.20;3.60;;;13.90;99.90;;;;;;5031332;28;20455;-86
2023/03/23 11:18:09;;;;;;;14.65;3.75;;;;;;;;;;5026699;28;20931;-81
2023/03/23 11:20:37;;;;;;;17.00;3.88;;;;;;;;;;5025663;28;20454;-82
2023/03/23 11:23:16;;;;;;;16.00;3.50;;;;;;;;;;5030656;28;20425;-81
2023/03/23 11:25:54;;;;;;;15.93;3.33;;;;;;;;;;5056003;28;20418;-82
2023/03/23 11:28:21;;;;;;;13.30;3.33;;;;;;;;;;5058939;28;20412;-80
2023/03/23 11:30:47;;;;;;;12.68;3.65;;;;;;;;;;5059964;28;21092;-81
2023/03/23 11:33:15;;;;;;;13.88;3.58;;;;;;;;;;5045390;28;20415;-82
2023/03/23 11:35:45;;;;;;;15.68;3.65;;;;;;;;;;5026211;28;20915;-81
2023/03/23 11:38:17;;;;;;;11.07;3.33;;;;;;;;;;5050729;28;20429;-81
2023/03/23 11:40:47;;;;;;;13.57;3.28;;;;;;;;;;5077755;28;21207;-81
2023/03/23 11:43:15;;;;;;;14.93;3.70;;;;;;;;;;5042043;28;20959;-81
2023/03/23 11:45:48;;;;;;;13.68;3.17;;;;;;;;;;5043593;28;20422;-82
2023/03/23 11:48:27;;;;;;;13.93;2.90;;;;;;;;;;5060114;28;20489;-81
2023/03/23 11:51:02;;;;;;;12.48;3.08;;;;;;;;;;5023940;28;20433;-82
2023/03/23 11:53:46;;;;;;;13.15;3.35;;;;;;;;;;5046098;28;20922;-84
2023/03/23 11:56:29;;;;;;;11.02;2.80;;;;;;;;;;5041574;28;20421;-81
2023/03/23 11:58:57;;;;;;;11.93;2.83;;;;;;;;;;5049157;28;20464;-81
2023/03/23 12:01:23;;;;;;;14.18;3.33;;;;;;;;;;5064095;28;20413;-81
2023/03/23 12:04:08;;;;;;;11.25;3.00;;;;;;;;;;5056676;28;20916;-81
2023/03/23 12:06:46;;;;;;;15.73;3.50;;;;;;;;;;5037119;28;20527;-80
2023/03/23 12:09:32;;;;;;;12.65;3.00;;;;;;;;;;5034449;28;20494;-80
2023/03/23 12:12:19;;;;;;;14.68;3.20;;;;;;;;;;5052026;28;20909;-81
2023/03/23 12:14:45;;;;;;;14.75;3.20;;;;;;;;;;5031700;28;20947;-80
2023/03/23 12:17:11;;;;;;;17.02;3.47;;;;;;;;;;5031121;28;21027;-80
2023/03/23 12:19:43;;;;;;;13.63;2.97;;;;;;;;;;5030066;28;20451;-81
2023/03/23 12:22:26;;;;;;;13.60;2.90;;;;;;;;;;5048314;28;20844;-81
2023/03/23 12:25:11;;;;;;;10.80;3.07;;;;;;;;;;5029038;28;20818;-81
2023/03/23 12:27:45;;;;;;;15.20;3.03;;;;;;;;;;5047213;28;20427;-81
2023/03/23 12:30:20;;;;;;;16.48;3.35;;;;;;;;;;5025112;28;20935;-81
2023/03/23 12:32:59;;;;;;;13.77;3.17;;;;;;;;;;5047512;28;20421;-81
2023/03/23 12:35:25;;;;;;;13.27;3.40;;;;;;;;;;5027684;28;20523;-81
2023/03/23 12:37:57;;;;;;;13.80;3.33;;;;;;;;;;5033068;28;20425;-80
2023/03/23 12:40:30;;;;;;;13.73;3.60;;;;;;;;;;5029475;28;20425;-81
2023/03/23 12:43:06;;;;;;;12.10;2.90;;;;;;;;;;5066619;28;20434;-81
2023/03/23 12:45:48;;;;;;;12.40;2.90;;;;;;;;;;5027613;28;20531;-81
2023/03/23 12:48:18;;;;;;;11.80;3.25;;;;;;;;;;5043277;28;20433;-81
2023/03/23 12:51:00;;;;;;;13.55;3.78;;;;;;;;;;5033339;28;20452;-81
2023/03/23 12:53:31;;;;;;;16.60;3.67;;;;;;;;;;5027974;28;20437;-81
2023/03/23 12:56:17;;;;;;;12.93;3.10;;;;;;;;;;5042914;28;20413;-81
2023/03/23 12:58:46;;;;;;;14.00;3.40;;;;;;;;;;5029124;28;20441;-81
2023/03/23 13:01:18;;;;;;;14.00;3.13;;;;;;;;;;5050274;28;20913;-79
2023/03/23 13:03:47;;;;;;;14.60;3.30;;;;;;;;;;5049340;28;20429;-78
2023/03/23 13:06:20;;;;;;;15.07;3.72;;;;;;;;;;5048094;28;20992;-84
2023/03/23 13:08:59;;;;;;;15.32;3.75;;;;;;;;;;5044914;28;20421;-83
2023/03/23 13:11:33;;;;;;;14.63;3.53;;;;;;;;;;5033965;28;20948;-83
2023/03/23 13:14:05;;;;;;;17.75;3.63;;;;;;;;;;5027085;28;20433;-84
2023/03/23 13:16:47;;;;;;;16.63;3.80;;;;;;;;;;5032121;28;20535;-83
2023/03/23 13:19:25;;;;;;;17.30;4.15;;;;;;;;;;5025992;28;20433;-84
2023/03/23 13:21:59;;;;;;;15.20;3.72;;;;;;;;;;5043907;28;20439;-84
2023/03/23 13:24:28;;;;;;;15.97;3.30;;;;;;;;;;5035276;28;20988;-84
2023/03/23 13:26:57;;;;;;;16.73;4.05;;;;;;;;;;5050195;28;20421;-84
2023/03/23 13:29:24;;;;;;;14.82;3.78;;;;;;;;;;5033410;28;20429;-82
2023/03/23 13:31:51;;;;;;;14.00;3.15;;;;;;;;;;5051602;28;20412;-83
2023/03/23 13:34:30;;;;;;;13.97;3.40;;;;;;;;;;5044062;28;20418;-82
2023/03/23 13:36:56;;;;;;;13.87;3.30;;;;;;;;;;5048072;28;20877;-82
2023/03/23 13:39:33;;;;;;;17.42;3.80;;;;;;;;;;5048104;28;20421;-80
2023/03/23 13:42:08;;;;;;;14.27;3.65;;;;;;;;;;5029025;28;20436;-82
2023/03/23 13:44:45;;;;;;;16.23;3.60;;;;;;;;;;5041711;28;20449;-82
2023/03/23 13:47:23;;;;;;;12.32;3.28;;;;;;;;;;5038032;28;20452;-80
2023/03/23 13:50:11;;;;;;;16.80;3.83;;;;;;;;;;5034951;28;20447;-80
2023/03/23 13:52:47;;;;;;;15.75;3.53;;;;;;;;;;5052648;28;20415;-80
2023/03/23 13:55:16;;;;;;;18.25;4.10;;;;;;;;;;5035894;28;20510;-80
2023/03/23 13:58:01;;;;;;;15.55;3.80;;;;;;;;;;5035976;28;20767;-79
2023/03/23 14:00:45;;;;;;;15.50;3.47;;;;;;;;;;5034141;28;20464;-80
2023/03/23 14:03:11;;;;;;;16.65;3.83;;;;;;;;;;5036289;28;20420;-80
2023/03/23 14:05:39;;;;;;;13.93;3.40;;;;;;;;;;5030878;28;20473;-81
2023/03/23 14:08:17;;;;;;;13.77;3.45;;;;;;;;;;5035758;28;20499;-80
2023/03/23 14:10:45;;;;;;;13.50;3.60;;;;;;;;;;5072528;28;20482;-80
2023/03/23 14:13:31;;;;;;;13.53;3.50;;;14.90;99.90;;;;;;5051779;28;20504;-82
2023/03/23 14:16:02;;;;;;;13.15;3.17;;;;;;;;;;5037503;28;20461;-82
2023/03/23 14:18:52;;;;;;;14.65;3.30;;;;;;;;;;5025941;28;20493;-82
2023/03/23 14:21:22;;;;;;;13.02;3.75;;;;;;;;;;5013987;28;20966;-81
2023/03/23 14:23:48;;;;;;;11.98;3.00;;;;;;;;;;5045864;28;20500;-82
2023/03/23 14:26:19;;;;;;;10.57;2.90;;;;;;;;;;5052248;28;20916;-82
2023/03/23 14:28:46;;;;;;;13.32;3.17;;;;;;;;;;5033313;28;20473;-81
2023/03/23 14:31:33;;;;;;;11.15;3.03;;;;;;;;;;5033399;28;20475;-80
2023/03/23 14:34:13;;;;;;;10.98;2.92;;;14.80;99.90;;;;;;5034013;28;20413;-80
2023/03/23 14:36:40;;;;;;;11.00;2.85;;;;;;;;;;5035640;28;20435;-80
2023/03/23 14:39:20;;;;;;;10.90;3.20;;;;;;;;;;5051463;28;20431;-80
2023/03/23 14:41:47;;;;;;;12.73;3.17;;;;;;;;;;5051940;28;20430;-82
2023/03/23 14:44:15;;;;;;;10.13;3.10;;;;;;;;;;5046626;28;20843;-81
2023/03/23 14:46:42;;;;;;;12.65;2.85;;;;;;;;;;5052543;28;20498;-81